Tuesday, October 16, 2018, 11:55 PM GMT
Back to Local

CYOY, Valcartier Airport

Location: , , Canada Lat: 46.9
Local Time: 11:55 PM GMT (23:55 GMT) Lon: -71.5
Time Zone: GMT Elev: 551 ft

Show me the last for .
Show Decoded

2018-10-16 23:00 METAR CYOY 162300Z 00000KT 15SM BKN050 03/M02 A2986 RMK SC7 DA-623FT SLP119 =
2018-10-16 22:00 METAR CYOY 162200Z 26006KT 230V290 15SM BKN050 BKN070 04/M03 A2985 RMK SC5AC1
                 DA-556FT SLP117 =
2018-10-16 21:00 METAR CYOY 162100Z 25012G19KT 15SM FEW042 SCT100 05/M03 A2984 RMK SC2AC2
                 DA-434FT SLP114 =
2018-10-16 20:00 METAR CYOY 162000Z 27011G19KT 15SM BKN041 05/M03 A2984 RMK SC7 DA-409FT SLP114 =
2018-10-16 19:00 METAR CYOY 161900Z 26017G22KT 15SM BKN041 BKN120 05/M04 A2984 RMK SC6AC1
                 DA-398FT SLP113 =
2018-10-16 18:00 METAR CYOY 161800Z 28015G24KT 15SM BKN038 05/M03 A2984 RMK SC6 DA-332FT SLP113 =
2018-10-16 17:00 METAR CYOY 161700Z 25015KT 220V290 15SM VCSH BKN034 04/M02 A2985 RMK SC7
                 DA-464FT VCSHSN N QUAD SLP115 =
2018-10-16 16:00 METAR CYOY 161600Z 25014G21KT 15SM VCSH BKN029 BKN200 04/M02 A2985 RMK SC7CI1
                 DA-501FT VCSHSN NW QUAD SLP114 =
2018-10-16 15:00 METAR CYOY 161500Z 29018G27KT 15SM BKN034 04/M03 A2984 RMK SC6 DA-507FT SLP112 =
2018-10-16 14:00 METAR CYOY 161400Z 29014G24KT 15SM BKN033 03/M02 A2984 RMK SC7 DA-589FT DIST
                 SHSN N QUAD SLP111 =
2018-10-16 13:00 METAR CYOY 161300Z 26016G27KT 15SM VCSH BKN029 03/M02 A2980 RMK SC7 VIS N-NE 4
                 VCSHSN SLP099 =
2018-10-16 12:00 METAR CYOY 161200Z 27011G21KT 15SM VCSH BKN030 03/M02 A2977 RMK SC7 DA-592FT
                 PRESRR VIS S QUAD 4 SLP087 =
2018-10-16 11:00 METAR CYOY 161100Z 28021G29KT 15SM VCSH OVC029 03/M01 A2969 RMK SC8 DA-472FT
                 PRESRR FST STFD OBS SLP061 =
2018-10-16 10:00 METAR CYOY 161000Z AUTO 26014G26KT 9SM 02/01 A2962 RMK PCPN 0.5MM PAST HR PRESRR
                 SLP038 =
2018-10-16 09:52 METAR CYOY 160952Z AUTO 26016G22KT 230V290 9SM 02/01 A2961 =
2018-10-16 09:51 METAR CYOY 160951Z AUTO 26015G22KT 230V290 9SM -UP 02/01 A2961 =
2018-10-16 09:00 METAR CYOY 160900Z AUTO 26014G30KT 8SM -RA 02/01 A2956 RMK SLP017 =
2018-10-16 08:00 METAR CYOY 160800Z AUTO 25016G27KT 220V290 7SM -RA 03/01 A2953 RMK PCPN 0.5MM
                 PAST HR SLP005 =
2018-10-16 07:50 METAR CYOY 160750Z AUTO 25013G22KT 210V280 9SM -RA 03/01 A2951 =
2018-10-16 07:48 METAR CYOY 160748Z AUTO 23015G26KT 210V280 9SM 03/01 A2951 =
2018-10-16 07:14 METAR CYOY 160714Z AUTO 24013KT 9SM -RA 04/01 A2950 =
2018-10-16 07:00 METAR CYOY 160700Z AUTO 23011G20KT 200V270 9SM 04/01 A2951 RMK SLP997 =
2018-10-16 06:00 METAR CYOY 160600Z AUTO 23010G17KT 200V270 9SM 05/02 A2953 RMK SLP004 =
2018-10-16 05:00 METAR CYOY 160500Z AUTO 24013G24KT 210V270 9SM 06/04 A2951 RMK ICG PAST HR
                 SLP997 =
2018-10-16 04:32 METAR CYOY 160432Z AUTO 23018G26KT 190V280 9SM 08/06 A2948 RMK ICG PAST HR =
2018-10-16 04:18 METAR CYOY 160418Z AUTO 23015G25KT 180V250 9SM -RA 08/07 A2947 RMK ICG =
2018-10-16 04:00 METAR CYOY 160400Z AUTO 21011G18KT 9SM 09/08 A2948 RMK ICG PCPN 0.5MM PAST HR
                 SLP986 =
2018-10-16 03:00 METAR CYOY 160300Z AUTO 24006KT 190V270 9SM 09/09 A2948 RMK PCPN 0.5MM PAST HR
                 SLP989 =
2018-10-16 02:00 METAR CYOY 160200Z AUTO 21003KT 110V240 9SM 08/08 A2950 RMK SLP994 =
2018-10-16 01:28 METAR CYOY 160128Z AUTO 25002KT 7SM 08/08 A2950 =
2018-10-16 01:18 METAR CYOY 160118Z AUTO 00000KT 2 1/2SM 08/08 A2949 =
2018-10-16 01:17 METAR CYOY 160117Z AUTO 00000KT 2 1/2SM -DZ 08/08 A2949 =
2018-10-16 01:15 METAR CYOY 160115Z AUTO 00000KT 1 1/4SM -DZ 08/08 A2949 =
2018-10-16 01:00 METAR CYOY 160100Z AUTO 31002KT 1 1/4SM -RA 08/08 A2950 RMK PCPN 1.5MM PAST HR
                 SLP994 =
2018-10-16 00:15 METAR CYOY 160015Z AUTO 34004KT 1 1/4SM -RA 07/07 A2950 =
2018-10-16 00:00 METAR CYOY 160000Z AUTO 36002KT 2 1/4SM -RA 08/08 A2950 RMK PCPN 3.5MM PAST HR
                 SLP998 =

Support USWX by starting your Amazon purchase here.